createdAt,value
2022-12-11T00:04:13.722Z,32.01486
2022-12-11T00:09:14.688Z,31.95854
2022-12-11T00:14:15.625Z,31.81437
2022-12-11T00:19:16.565Z,31.74526
2022-12-11T00:24:17.527Z,31.8837
2022-12-11T00:29:18.476Z,31.7681
2022-12-11T00:34:19.487Z,31.75
2022-12-11T00:39:20.467Z,31.74317
2022-12-11T00:44:21.400Z,31.74824
2022-12-11T00:49:22.357Z,31.66077
2022-12-11T00:54:23.249Z,31.46535
2022-12-11T00:59:24.196Z,31.46144
2022-12-11T01:04:25.135Z,31.4853
2022-12-11T01:09:26.051Z,31.51886
2022-12-11T01:14:26.989Z,31.42111
2022-12-11T01:19:27.986Z,31.49002
2022-12-11T01:24:28.992Z,31.41424
2022-12-11T01:29:29.949Z,31.41997
2022-12-11T01:34:30.926Z,31.44864
2022-12-11T01:39:31.881Z,31.4367
2022-12-11T01:44:32.803Z,31.34319
2022-12-11T01:49:33.716Z,31.37315
2022-12-11T01:54:34.645Z,31.39059
2022-12-11T01:59:35.576Z,31.42998
2022-12-11T02:04:36.478Z,31.19682
2022-12-11T02:09:37.382Z,31.23843
2022-12-11T02:14:38.296Z,31.17652
2022-12-11T02:19:39.240Z,31.27604
2022-12-11T02:24:40.165Z,31.13259
2022-12-11T02:29:41.194Z,31.17229
2022-12-11T02:34:42.117Z,31.21783
2022-12-11T02:39:43.027Z,31.25324
2022-12-11T02:44:43.956Z,31.19831
2022-12-11T02:49:44.959Z,31.297
2022-12-11T02:54:45.866Z,31.32718
2022-12-11T02:59:46.769Z,31.43179
2022-12-11T03:04:47.695Z,31.37087
2022-12-11T03:09:48.655Z,31.52523
2022-12-11T03:14:49.568Z,31.54059
2022-12-11T03:19:50.489Z,31.48191
2022-12-11T03:24:51.427Z,31.4859
2022-12-11T03:29:52.358Z,31.5144
2022-12-11T03:34:58.080Z,31.46839
2022-12-11T03:39:59.409Z,31.50879
2022-12-11T03:45:00.330Z,31.56023
2022-12-11T03:50:01.336Z,31.46326
2022-12-11T03:55:02.296Z,31.58518
2022-12-11T04:00:03.293Z,31.66001
2022-12-11T04:05:04.162Z,31.62094
2022-12-11T04:10:05.089Z,31.72469
2022-12-11T04:15:06.054Z,31.84457
2022-12-11T04:20:07.088Z,31.85011
2022-12-11T04:25:08.417Z,31.86681
2022-12-11T04:30:09.501Z,31.83163
2022-12-11T04:35:10.632Z,31.72862
2022-12-11T04:40:11.770Z,31.84417
2022-12-11T04:45:13.026Z,31.76981
2022-12-11T04:50:14.202Z,31.84952
2022-12-11T04:55:15.103Z,31.74594
2022-12-11T05:00:16.031Z,31.86785
2022-12-11T05:05:16.901Z,31.90788
2022-12-11T05:10:17.878Z,31.78846
2022-12-11T05:15:18.788Z,31.89158
2022-12-11T05:20:19.678Z,31.93181
2022-12-11T05:25:20.626Z,32.0979
2022-12-11T05:30:21.608Z,32.14265
2022-12-11T05:35:22.520Z,32.16016
2022-12-11T05:40:30.011Z,32.30128
2022-12-11T05:45:31.581Z,32.5376
2022-12-11T05:50:32.512Z,32.65221
2022-12-11T05:55:33.438Z,32.59226
2022-12-11T06:00:36.194Z,32.48157
2022-12-11T06:05:37.320Z,32.36686
2022-12-11T06:10:38.278Z,32.51936
2022-12-11T06:15:39.401Z,32.71629
2022-12-11T06:20:40.343Z,32.76997
2022-12-11T06:25:41.307Z,32.95463
2022-12-11T06:30:42.200Z,33.04158
2022-12-11T06:35:43.101Z,32.87742
2022-12-11T06:40:44.030Z,32.90472
2022-12-11T06:45:45.040Z,32.76301
2022-12-11T06:50:45.988Z,32.55501
2022-12-11T06:55:46.916Z,32.34962
2022-12-11T07:00:47.902Z,32.44839
2022-12-11T07:05:48.899Z,32.35878
2022-12-11T07:10:49.852Z,32.068
2022-12-11T07:15:50.810Z,32.2508
2022-12-11T07:20:51.778Z,32.1849
2022-12-11T07:25:52.734Z,32.08576
2022-12-11T07:30:53.676Z,31.93227
2022-12-11T07:35:55.085Z,31.8857
2022-12-11T07:40:56.244Z,31.88931
2022-12-11T07:45:57.193Z,31.96358
2022-12-11T07:50:58.160Z,31.88329
2022-12-11T07:55:59.089Z,31.92802
2022-12-11T08:01:00.105Z,31.62697
2022-12-11T08:06:01.361Z,31.50864
2022-12-11T08:11:02.520Z,31.3412
2022-12-11T08:16:03.449Z,31.08142
2022-12-11T08:21:04.362Z,31.10092
2022-12-11T08:26:05.321Z,31.14322
2022-12-11T08:31:06.287Z,31.0747
2022-12-11T08:36:07.232Z,30.8908
2022-12-11T08:41:08.187Z,30.50332
2022-12-11T08:46:09.160Z,30.6484
2022-12-11T08:51:10.086Z,30.68215
2022-12-11T08:56:11.008Z,30.59297
2022-12-11T09:01:12.325Z,30.44568
2022-12-11T09:06:13.437Z,30.30246
2022-12-11T09:11:14.393Z,30.3867
2022-12-11T09:16:15.345Z,30.40749
2022-12-11T09:21:16.302Z,30.13245
2022-12-11T09:26:17.283Z,30.33209
2022-12-11T09:31:18.311Z,30.28513
2022-12-11T09:36:19.225Z,30.28313
2022-12-11T09:41:20.154Z,30.10485
2022-12-11T09:46:24.504Z,30.144
2022-12-11T09:51:25.877Z,30.09354
2022-12-11T09:56:26.894Z,29.99662
2022-12-11T10:01:27.910Z,29.76996
2022-12-11T10:06:28.986Z,29.84768
2022-12-11T10:11:29.984Z,30.0387
2022-12-11T10:16:30.902Z,30.04643
2022-12-11T10:21:31.855Z,29.98964
2022-12-11T10:26:32.839Z,30.10299
2022-12-11T10:31:34.050Z,29.92862
2022-12-11T10:36:35.045Z,29.99276
2022-12-11T10:41:36.045Z,30.06687
2022-12-11T10:46:37.075Z,30.00162
2022-12-11T10:51:44.202Z,30.11311
2022-12-11T10:56:45.236Z,30.23555
2022-12-11T11:01:46.217Z,30.1003
2022-12-11T11:06:47.222Z,30.0653
2022-12-11T11:11:48.195Z,30.3113
2022-12-11T11:16:49.134Z,30.10216
2022-12-11T11:21:50.075Z,29.95488
2022-12-11T11:32:05.838Z,30.10754
2022-12-11T11:37:06.799Z,30.01318
2022-12-11T11:42:07.753Z,29.9579
2022-12-11T11:47:08.849Z,29.90706
2022-12-11T11:52:09.809Z,29.82816
2022-12-11T11:57:10.723Z,29.85548
2022-12-11T12:02:11.650Z,29.89895
2022-12-11T12:07:12.668Z,29.73577
2022-12-11T12:12:13.623Z,29.7865
2022-12-11T12:17:14.592Z,29.72696
2022-12-11T12:22:15.563Z,29.61629
2022-12-11T12:27:49.917Z,29.70205
2022-12-11T12:32:51.313Z,29.59126
2022-12-11T12:37:52.269Z,29.72479
2022-12-11T12:42:53.270Z,29.65499
2022-12-11T12:47:54.352Z,29.68416
2022-12-11T12:52:55.711Z,29.64433
2022-12-11T12:57:56.730Z,29.64375
2022-12-11T13:02:57.687Z,29.51143
2022-12-11T13:07:58.741Z,29.75532
2022-12-11T13:12:59.731Z,29.65098
2022-12-11T13:18:05.715Z,29.68671
2022-12-11T13:23:06.648Z,29.74531
2022-12-11T13:28:07.570Z,29.65623
2022-12-11T13:33:08.492Z,29.70851
2022-12-11T13:38:09.401Z,29.69694
2022-12-11T13:43:10.468Z,29.67985
2022-12-11T13:48:16.649Z,29.86085
2022-12-11T13:53:17.827Z,30.00086
2022-12-11T13:58:18.731Z,29.98263
2022-12-11T14:03:19.684Z,30.0043
2022-12-11T14:08:20.638Z,30.04353
2022-12-11T14:13:21.608Z,30.03199
2022-12-11T14:18:22.529Z,30.09708
2022-12-11T14:23:23.617Z,30.20088
2022-12-11T14:28:29.559Z,30.37558
2022-12-11T14:33:30.528Z,30.44564
2022-12-11T14:38:31.421Z,30.44582
2022-12-11T14:43:32.500Z,30.55115
2022-12-11T14:48:33.484Z,30.63918
2022-12-11T14:53:34.521Z,30.74219
2022-12-11T14:58:35.448Z,30.83986
2022-12-11T15:03:36.425Z,30.89014
2022-12-11T15:08:37.368Z,30.87901
2022-12-11T15:13:38.282Z,30.90219
2022-12-11T15:18:39.324Z,30.96043
2022-12-11T15:23:40.237Z,31.04738
2022-12-11T15:28:41.152Z,31.13989
2022-12-11T15:33:42.068Z,31.28304
2022-12-11T15:38:43.020Z,31.23759
2022-12-11T15:43:44.011Z,31.34074
2022-12-11T15:48:44.970Z,31.42066
2022-12-11T15:53:45.982Z,31.37997
2022-12-11T15:58:46.980Z,31.51185
2022-12-11T16:03:47.865Z,31.51177
2022-12-11T16:08:48.795Z,31.50519
2022-12-11T16:13:49.736Z,31.54604
2022-12-11T16:18:50.605Z,31.53469
2022-12-11T16:23:51.568Z,31.65565
2022-12-11T16:28:52.569Z,31.74637
2022-12-11T16:33:53.536Z,31.72409
2022-12-11T16:38:54.567Z,31.73474
2022-12-11T16:43:55.900Z,31.79248
2022-12-11T16:48:56.799Z,31.8267
2022-12-11T16:53:57.842Z,31.8495
2022-12-11T16:58:58.823Z,31.92379
2022-12-11T17:03:59.752Z,32.03267
2022-12-11T17:09:00.659Z,32.02018
2022-12-11T17:14:01.579Z,31.92883
2022-12-11T17:19:02.626Z,32.0446
2022-12-11T17:24:03.604Z,32.09719
2022-12-11T17:29:04.601Z,32.14908
2022-12-11T17:34:05.499Z,32.26913
2022-12-11T17:39:06.441Z,32.22271
2022-12-11T17:44:07.547Z,32.22259
2022-12-11T17:49:08.465Z,32.3787
2022-12-11T17:54:09.380Z,32.40719
2022-12-11T17:59:10.309Z,32.44217
2022-12-11T18:04:11.276Z,32.48773
2022-12-11T18:09:12.309Z,32.43092
2022-12-11T18:14:17.065Z,32.53469
2022-12-11T18:19:18.320Z,32.59792
2022-12-11T18:24:19.272Z,32.75315
2022-12-11T18:29:20.257Z,32.87853
2022-12-11T18:34:21.305Z,32.82677
2022-12-11T18:39:22.253Z,32.94793
2022-12-11T18:44:23.360Z,33.06805
2022-12-11T18:49:24.382Z,33.0101
2022-12-11T18:54:25.341Z,33.09613
2022-12-11T18:59:26.419Z,33.05692
2022-12-11T19:04:27.426Z,33.31612
2022-12-11T19:09:28.336Z,33.34049
2022-12-11T19:14:29.315Z,33.49502
2022-12-11T19:19:30.372Z,33.5639
2022-12-11T19:24:31.327Z,33.67207
2022-12-11T19:29:32.280Z,33.56681
2022-12-11T19:34:33.276Z,33.4926
2022-12-11T19:39:34.283Z,33.57224
2022-12-11T19:44:35.235Z,33.63574
2022-12-11T19:49:36.181Z,33.64579
2022-12-11T19:54:37.218Z,33.58861
2022-12-11T19:59:38.252Z,33.62917
2022-12-11T20:04:39.218Z,33.5708
2022-12-11T20:09:40.112Z,33.62281
2022-12-11T20:14:41.003Z,33.51962
2022-12-11T20:19:42.032Z,33.56021
2022-12-11T20:24:43.070Z,33.60992
2022-12-11T20:29:44.127Z,33.4375
2022-12-11T20:34:45.237Z,33.4213
2022-12-11T20:39:46.266Z,33.54202
2022-12-11T20:44:49.021Z,33.55328
2022-12-11T20:49:50.719Z,33.46051
2022-12-11T20:54:51.757Z,33.3448
2022-12-11T20:59:52.677Z,33.2925
2022-12-11T21:04:53.625Z,33.36917
2022-12-11T21:09:54.525Z,33.40444
2022-12-11T21:14:55.662Z,33.40959
2022-12-11T21:19:56.904Z,33.50234
2022-12-11T21:24:57.838Z,33.46285
2022-12-11T21:29:58.817Z,33.51519
2022-12-11T21:34:59.946Z,33.6474
2022-12-11T21:40:00.865Z,33.58425
2022-12-11T21:50:38.430Z,33.73438
2022-12-11T21:55:39.365Z,33.83242
2022-12-11T22:00:40.309Z,33.95219
2022-12-11T22:05:41.243Z,34.03207
2022-12-11T22:10:42.196Z,33.92842
2022-12-11T22:15:43.130Z,33.97414
2022-12-11T22:20:44.033Z,34.08427
2022-12-11T22:25:44.931Z,34.1633
2022-12-11T22:30:45.924Z,34.04747
2022-12-11T22:35:46.843Z,33.90329
2022-12-11T22:40:47.737Z,34.00578
2022-12-11T22:45:48.748Z,34.02802
2022-12-11T22:50:49.653Z,34.31136
2022-12-11T22:55:50.570Z,34.25256
2022-12-11T23:00:51.523Z,34.37986
2022-12-11T23:05:52.523Z,34.41399
2022-12-11T23:10:53.494Z,34.43173
2022-12-11T23:15:54.440Z,34.45284
2022-12-11T23:20:55.382Z,34.08537
2022-12-11T23:25:56.572Z,34.19431
2022-12-11T23:30:57.577Z,34.29758
2022-12-11T23:35:58.641Z,34.33757
2022-12-11T23:40:59.542Z,34.33705
2022-12-11T23:46:00.544Z,34.33168
2022-12-11T23:51:01.695Z,34.49973
2022-12-11T23:56:02.584Z,34.63822
